Time;durP1;ratioP1;P1;durP2;ratioP2;P2;SDS_P1;SDS_P2;PMS_P1;PMS_P2;Temp;Humidity;BMP_temperature;BMP_pressure;BME280_temperature;BME280_humidity;BME280_pressure;Samples;Min_cycle;Max_cycle;Signal;HPM_P1;HPM_P2
2023/08/03 00:01:15;;;;;;;21.38;4.75;;;18.60;99.90;;;;;;4068449;29;20115;-53
2023/08/03 00:03:17;;;;;;;17.85;4.88;;;18.60;99.90;;;;;;4068483;29;20112;-53
2023/08/03 00:05:20;;;;;;;20.08;4.95;;;18.60;99.90;;;;;;4067802;29;20056;-53
2023/08/03 00:07:22;;;;;;;15.90;4.20;;;18.60;99.90;;;;;;4068257;29;20111;-54
2023/08/03 00:09:24;;;;;;;16.05;4.07;;;18.60;99.90;;;;;;4067184;29;20063;-54
2023/08/03 00:11:26;;;;;;;16.85;4.05;;;18.60;99.90;;;;;;4068314;29;20558;-53
2023/08/03 00:13:28;;;;;;;17.33;3.85;;;18.60;99.90;;;;;;4068119;29;20429;-53
2023/08/03 00:15:31;;;;;;;19.20;4.57;;;18.60;99.90;;;;;;4067784;29;20048;-54
2023/08/03 00:17:34;;;;;;;21.08;5.30;;;18.60;99.90;;;;;;4067902;29;20082;-53
2023/08/03 00:19:36;;;;;;;17.42;4.22;;;18.60;99.90;;;;;;4068369;29;20048;-53
2023/08/03 00:21:38;;;;;;;20.15;4.68;;;18.50;99.90;;;;;;4067878;29;20134;-53
2023/08/03 00:23:40;;;;;;;18.25;4.75;;;18.50;99.90;;;;;;4068186;29;20070;-53
2023/08/03 00:25:42;;;;;;;22.75;5.20;;;18.50;99.90;;;;;;4067244;29;20108;-55
2023/08/03 00:27:44;;;;;;;18.88;4.63;;;18.50;99.90;;;;;;4068009;29;20063;-54
2023/08/03 00:29:47;;;;;;;15.43;4.10;;;18.50;99.90;;;;;;4070165;29;20048;-53
2023/08/03 00:31:49;;;;;;;15.77;4.22;;;18.50;99.90;;;;;;4070206;29;20882;-53
2023/08/03 00:33:52;;;;;;;18.52;4.13;;;18.50;99.90;;;;;;4071192;29;20096;-53
2023/08/03 00:35:54;;;;;;;19.48;4.75;;;18.50;99.90;;;;;;4070840;29;20051;-53
2023/08/03 00:37:56;;;;;;;12.60;3.90;;;18.50;99.90;;;;;;4071259;29;20079;-53
2023/08/03 00:39:58;;;;;;;18.90;4.43;;;18.50;99.90;;;;;;4071197;29;20074;-53
2023/08/03 00:42:00;;;;;;;20.75;4.07;;;18.50;99.90;;;;;;4071403;29;20406;-51
2023/08/03 00:44:03;;;;;;;18.30;3.60;;;18.50;99.90;;;;;;4071129;29;20052;-51
2023/08/03 00:46:05;;;;;;;19.92;4.47;;;18.50;99.90;;;;;;4070734;29;20088;-51
2023/08/03 00:48:08;;;;;;;15.50;4.63;;;18.50;99.90;;;;;;4070948;29;20044;-51
2023/08/03 00:50:11;;;;;;;17.98;4.65;;;18.50;99.90;;;;;;4071215;29;20074;-51
2023/08/03 00:52:13;;;;;;;19.15;4.07;;;18.50;99.90;;;;;;4070904;29;20395;-51
2023/08/03 00:54:16;;;;;;;18.67;4.35;;;18.40;99.90;;;;;;4071002;29;20055;-52
2023/08/03 00:56:18;;;;;;;19.80;4.80;;;18.40;99.90;;;;;;4070089;29;20048;-52
2023/08/03 00:58:19;;;;;;;21.25;4.32;;;18.40;99.90;;;;;;4070713;29;20056;-52
2023/08/03 01:00:22;;;;;;;19.35;4.80;;;18.40;99.90;;;;;;4070916;29;20075;-52
2023/08/03 01:02:24;;;;;;;20.58;4.25;;;18.40;99.90;;;;;;4071258;29;20076;-53
2023/08/03 01:04:26;;;;;;;18.75;4.55;;;18.40;99.90;;;;;;4070734;29;20059;-53
2023/08/03 01:06:30;;;;;;;14.60;4.13;;;18.40;99.90;;;;;;4070001;29;20134;-51
2023/08/03 01:08:32;;;;;;;14.27;3.85;;;18.40;99.90;;;;;;4070967;29;20052;-54
2023/08/03 01:10:35;;;;;;;18.95;4.18;;;18.40;99.90;;;;;;4070166;29;20060;-54
2023/08/03 01:12:37;;;;;;;19.90;4.15;;;18.40;99.90;;;;;;4070599;29;20099;-54
2023/08/03 01:14:39;;;;;;;19.83;4.22;;;18.40;99.90;;;;;;4070672;29;20123;-53
2023/08/03 01:16:41;;;;;;;18.10;4.75;;;18.30;99.90;;;;;;4069956;29;20127;-52
2023/08/03 01:18:44;;;;;;;17.48;4.53;;;18.30;99.90;;;;;;4070741;29;20482;-52
2023/08/03 01:20:46;;;;;;;17.80;4.15;;;18.30;99.90;;;;;;4071041;29;20059;-51
2023/08/03 01:22:50;;;;;;;24.23;4.80;;;18.30;99.90;;;;;;4070527;29;20512;-51
2023/08/03 01:24:52;;;;;;;16.55;3.92;;;18.30;99.90;;;;;;4070455;29;20048;-52
2023/08/03 01:26:54;;;;;;;18.35;4.47;;;18.20;99.90;;;;;;4068800;29;20104;-51
2023/08/03 01:28:56;;;;;;;19.63;4.00;;;18.20;99.90;;;;;;4070573;29;20083;-51
2023/08/03 01:30:58;;;;;;;18.73;4.30;;;18.10;99.90;;;;;;4070695;29;20478;-51
2023/08/03 01:33:01;;;;;;;27.60;4.70;;;18.00;99.90;;;;;;4070724;29;20048;-51
2023/08/03 01:35:05;;;;;;;16.58;3.63;;;17.90;99.90;;;;;;4070344;29;20111;-51
2023/08/03 01:37:07;;;;;;;16.45;3.70;;;17.90;99.90;;;;;;4069538;29;20051;-51
2023/08/03 01:39:11;;;;;;;15.35;4.18;;;17.70;99.90;;;;;;4070281;29;20120;-51
2023/08/03 01:41:13;;;;;;;14.63;3.47;;;17.60;99.90;;;;;;4070134;29;20055;-50
2023/08/03 01:43:15;;;;;;;15.45;3.58;;;17.60;99.90;;;;;;4070542;29;20052;-51
2023/08/03 01:45:17;;;;;;;18.80;3.90;;;17.50;99.90;;;;;;4070144;29;20103;-51
2023/08/03 01:47:19;;;;;;;16.55;3.20;;;17.50;99.90;;;;;;4069543;29;20055;-51
2023/08/03 01:49:23;;;;;;;14.45;3.28;;;17.40;99.90;;;;;;4070360;29;20091;-54
2023/08/03 01:51:25;;;;;;;14.18;3.28;;;17.40;99.90;;;;;;4070226;29;20052;-51
2023/08/03 01:53:27;;;;;;;18.95;3.85;;;17.40;99.90;;;;;;4069754;29;20052;-52
2023/08/03 01:55:31;;;;;;;14.20;3.47;;;17.40;99.90;;;;;;4070346;29;20074;-51
2023/08/03 01:57:33;;;;;;;12.35;3.30;;;17.40;99.90;;;;;;4069526;29;20052;-51
2023/08/03 01:59:36;;;;;;;13.50;3.22;;;17.40;99.90;;;;;;4070066;29;20236;-51
2023/08/03 02:01:38;;;;;;;14.90;3.13;;;17.30;99.90;;;;;;4069934;29;20108;-52
2023/08/03 02:03:40;;;;;;;15.90;3.67;;;17.30;99.90;;;;;;4070299;29;20072;-51
2023/08/03 02:05:42;;;;;;;13.10;3.28;;;17.30;99.90;;;;;;4069530;29;20058;-52
2023/08/03 02:07:46;;;;;;;13.55;3.58;;;17.20;99.90;;;;;;4069374;29;20127;-51
2023/08/03 02:09:48;;;;;;;15.32;4.03;;;17.20;99.90;;;;;;4069760;29;20470;-51
2023/08/03 02:11:52;;;;;;;14.02;3.10;;;17.30;99.90;;;;;;4070056;29;20139;-51
2023/08/03 02:13:54;;;;;;;10.98;2.70;;;17.30;99.90;;;;;;4069753;29;20079;-51
2023/08/03 02:15:56;;;;;;;16.35;3.35;;;17.30;99.90;;;;;;4069501;29;20167;-51
2023/08/03 02:18:03;;;;;;;16.42;2.80;;;17.30;99.90;;;;;;4068684;29;20052;-51
2023/08/03 02:20:07;;;;;;;11.13;3.22;;;17.20;99.90;;;;;;4069741;29;20048;-51
2023/08/03 02:22:09;;;;;;;13.10;2.92;;;17.30;99.90;;;;;;4069624;29;20505;-51
2023/08/03 02:24:12;;;;;;;13.80;2.58;;;17.30;99.90;;;;;;4069819;29;20052;-50
2023/08/03 02:26:14;;;;;;;16.08;3.58;;;17.30;99.90;;;;;;4069296;29;20052;-51
2023/08/03 02:28:18;;;;;;;11.75;3.05;;;17.30;99.90;;;;;;4069807;29;20063;-51
2023/08/03 02:30:21;;;;;;;9.93;2.80;;;17.20;99.90;;;;;;4070138;29;20127;-52
2023/08/03 02:32:25;;;;;;;12.60;3.53;;;17.20;99.90;;;;;;4070139;29;20141;-51
2023/08/03 02:34:27;;;;;;;13.00;3.33;;;17.20;99.90;;;;;;4070695;29;20052;-52
2023/08/03 02:36:29;;;;;;;10.02;2.85;;;17.30;99.90;;;;;;4069537;29;20048;-51
2023/08/03 02:38:31;;;;;;;10.43;2.85;;;17.30;99.90;;;;;;4069751;29;20155;-50
2023/08/03 02:40:33;;;;;;;6.38;2.00;;;17.30;99.90;;;;;;4069703;29;20048;-53
2023/08/03 02:42:35;;;;;;;9.45;2.40;;;17.20;99.90;;;;;;4069934;29;20051;-51
2023/08/03 02:44:39;;;;;;;10.77;2.70;;;17.20;99.90;;;;;;4069499;29;20080;-51
2023/08/03 02:46:41;;;;;;;9.10;2.58;;;17.10;99.90;;;;;;4068674;29;20051;-51
2023/08/03 02:48:43;;;;;;;11.05;2.72;;;17.10;99.90;;;;;;4069151;29;20062;-52
2023/08/03 02:50:45;;;;;;;11.63;3.30;;;17.10;99.90;;;;;;4069141;29;20071;-51
2023/08/03 02:52:47;;;;;;;8.77;2.42;;;17.00;99.90;;;;;;4068902;29;20048;-51
2023/08/03 02:54:49;;;;;;;11.38;2.35;;;17.10;99.90;;;;;;4069481;29;20048;-51
2023/08/03 02:56:51;;;;;;;8.15;2.50;;;17.10;99.90;;;;;;4068668;29;20052;-52
2023/08/03 02:58:54;;;;;;;9.32;2.50;;;17.10;99.90;;;;;;4069368;29;20048;-51
2023/08/03 03:00:57;;;;;;;9.80;2.65;;;17.10;99.90;;;;;;4069154;29;20135;-51
2023/08/03 03:02:59;;;;;;;9.70;2.60;;;17.10;99.90;;;;;;4069317;29;20056;-51
2023/08/03 03:05:01;;;;;;;9.75;2.30;;;17.10;99.90;;;;;;4068871;29;20055;-51
2023/08/03 03:07:05;;;;;;;10.90;2.95;;;17.10;99.90;;;;;;4067129;29;20051;-50
2023/08/03 03:09:07;;;;;;;9.15;2.53;;;17.10;99.90;;;;;;4069048;29;20083;-54
2023/08/03 03:11:09;;;;;;;9.13;2.22;;;17.10;99.90;;;;;;4069165;29;20082;-53
2023/08/03 03:13:12;;;;;;;9.55;2.17;;;17.10;99.90;;;;;;4069053;29;20048;-53
2023/08/03 03:15:13;;;;;;;10.30;2.60;;;17.10;99.90;;;;;;4069004;29;20052;-54
2023/08/03 03:17:17;;;;;;;8.68;2.35;;;17.10;99.90;;;;;;4068151;29;20052;-54
2023/08/03 03:19:19;;;;;;;8.38;2.00;;;17.10;99.90;;;;;;4069039;29;20497;-53
2023/08/03 03:21:21;;;;;;;10.02;1.83;;;17.10;99.90;;;;;;4068631;29;20051;-53
2023/08/03 03:23:23;;;;;;;11.68;2.38;;;17.10;99.90;;;;;;4068695;29;20044;-53
2023/08/03 03:25:25;;;;;;;7.40;2.15;;;17.20;99.90;;;;;;4069019;29;20124;-53
2023/08/03 03:27:27;;;;;;;8.30;2.22;;;17.10;99.90;;;;;;4068196;29;20386;-53
2023/08/03 03:29:29;;;;;;;10.52;2.00;;;17.10;99.90;;;;;;4068831;29;20044;-53
2023/08/03 03:31:31;;;;;;;7.72;2.00;;;17.10;99.90;;;;;;4068859;29;20510;-53
2023/08/03 03:33:35;;;;;;;7.43;2.30;;;17.10;99.90;;;;;;4068710;29;20498;-54
2023/08/03 03:35:37;;;;;;;10.88;2.53;;;17.10;99.90;;;;;;4068429;29;20513;-53
2023/08/03 03:37:39;;;;;;;9.05;2.53;;;17.10;99.90;;;;;;4067963;29;20052;-53
2023/08/03 03:39:41;;;;;;;10.23;2.63;;;17.10;99.90;;;;;;4068726;29;20387;-53
2023/08/03 03:41:45;;;;;;;9.05;3.00;;;17.10;99.90;;;;;;4068519;29;20079;-54
2023/08/03 03:43:47;;;;;;;10.13;2.22;;;17.00;99.90;;;;;;4068755;29;20076;-53
2023/08/03 03:45:49;;;;;;;9.98;2.13;;;17.10;99.90;;;;;;4068469;29;20086;-53
2023/08/03 03:47:51;;;;;;;6.18;2.47;;;17.10;99.90;;;;;;4067764;29;20135;-53
2023/08/03 03:49:55;;;;;;;10.27;2.28;;;17.00;99.90;;;;;;4066950;29;20051;-53
2023/08/03 03:51:57;;;;;;;11.70;2.53;;;17.10;99.90;;;;;;4068455;29;20052;-55
2023/08/03 03:53:59;;;;;;;7.32;2.40;;;17.10;99.90;;;;;;4068493;29;20051;-53
2023/08/03 03:56:02;;;;;;;10.57;2.55;;;17.10;99.90;;;;;;4068318;29;20409;-54
2023/08/03 03:58:05;;;;;;;6.40;1.65;;;17.10;99.90;;;;;;4067978;29;20487;-54
2023/08/03 04:00:08;;;;;;;5.93;1.95;;;17.10;99.90;;;;;;4068524;29;20469;-54
2023/08/03 04:02:10;;;;;;;8.55;2.10;;;17.10;99.90;;;;;;4082891;29;20075;-53
2023/08/03 04:04:12;;;;;;;6.90;1.90;;;17.10;99.90;;;;;;4067256;29;20051;-53
2023/08/03 04:06:16;;;;;;;7.97;2.00;;;17.10;99.90;;;;;;4067731;29;20048;-53
2023/08/03 04:08:18;;;;;;;7.13;1.92;;;17.10;99.90;;;;;;4068303;29;20048;-53
2023/08/03 04:10:20;;;;;;;9.27;2.28;;;17.00;99.90;;;;;;4068279;29;20115;-53
2023/08/03 04:12:22;;;;;;;11.57;2.28;;;17.10;99.90;;;;;;4068219;29;20051;-53
2023/08/03 04:14:24;;;;;;;6.60;1.90;;;17.10;99.90;;;;;;4068281;29;20063;-55
2023/08/03 04:16:27;;;;;;;7.35;1.92;;;17.00;99.90;;;;;;4067739;29;20052;-54
2023/08/03 04:18:29;;;;;;;6.97;1.90;;;17.00;99.90;;;;;;4067744;29;20055;-54
2023/08/03 04:20:31;;;;;;;8.52;2.15;;;17.00;99.90;;;;;;4068112;29;20048;-53
2023/08/03 04:22:34;;;;;;;8.02;2.17;;;17.00;99.90;;;;;;4068228;29;20044;-53
2023/08/03 04:24:38;;;;;;;6.95;1.77;;;17.10;99.90;;;;;;4068107;29;20055;-53
2023/08/03 04:26:40;;;;;;;7.80;2.15;;;17.10;99.90;;;;;;4067377;29;20095;-54
2023/08/03 04:28:42;;;;;;;7.90;2.30;;;17.00;99.90;;;;;;4067967;29;20159;-53
2023/08/03 04:30:44;;;;;;;9.05;2.65;;;17.10;99.90;;;;;;4068455;29;20052;-51
2023/08/03 04:32:46;;;;;;;9.40;2.67;;;17.10;99.90;;;;;;4067693;29;20074;-51
2023/08/03 04:34:48;;;;;;;10.13;2.90;;;17.10;99.90;;;;;;4068239;29;20048;-52
2023/08/03 04:36:50;;;;;;;9.20;2.05;;;17.10;99.90;;;;;;4067372;29;20076;-51
2023/08/03 04:38:54;;;;;;;9.52;2.38;;;17.20;99.90;;;;;;4067865;29;20127;-51
2023/08/03 04:40:56;;;;;;;12.05;2.47;;;17.20;99.90;;;;;;4068017;29;20407;-51
2023/08/03 04:42:58;;;;;;;11.02;2.78;;;17.20;99.90;;;;;;4068141;29;20175;-51
2023/08/03 04:45:00;;;;;;;10.32;3.03;;;17.20;99.90;;;;;;4068294;29;20068;-51
2023/08/03 04:47:02;;;;;;;11.15;2.53;;;17.10;99.90;;;;;;4065939;29;20056;-51
2023/08/03 04:49:04;;;;;;;6.90;2.40;;;17.10;99.90;;;;;;4068060;29;20455;-51
2023/08/03 04:51:06;;;;;;;9.02;2.30;;;17.20;99.90;;;;;;4066821;29;20075;-51
2023/08/03 04:53:08;;;;;;;10.75;2.22;;;17.20;99.90;;;;;;4067853;29;20098;-51
2023/08/03 04:55:12;;;;;;;13.13;2.50;;;17.20;99.90;;;;;;4068116;29;20079;-51
2023/08/03 04:57:15;;;;;;;13.05;2.45;;;17.20;99.90;;;;;;4067005;29;20142;-51
2023/08/03 04:59:17;;;;;;;8.82;2.55;;;17.20;99.90;;;;;;4067976;29;20079;-51
2023/08/03 05:01:19;;;;;;;15.80;2.83;;;17.20;99.90;;;;;;4067524;29;20352;-51
2023/08/03 05:03:21;;;;;;;8.82;2.47;;;17.20;99.90;;;;;;4068065;29;20079;-50
2023/08/03 05:05:23;;;;;;;13.10;2.92;;;17.20;99.90;;;;;;4067852;29;20054;-51
2023/08/03 05:07:27;;;;;;;8.68;2.40;;;17.10;99.90;;;;;;4067168;29;20052;-52
2023/08/03 05:09:29;;;;;;;11.00;2.30;;;17.10;99.90;;;;;;4067813;29;20095;-52
2023/08/03 05:11:33;;;;;;;11.90;2.72;;;17.20;99.90;;;;;;4068006;29;20451;-51
2023/08/03 05:13:35;;;;;;;15.15;3.38;;;17.20;99.90;;;;;;4068135;29;20136;-52
2023/08/03 05:15:37;;;;;;;9.38;2.53;;;17.10;99.90;;;;;;4069892;29;20048;-51
2023/08/03 05:17:39;;;;;;;9.98;2.47;;;17.20;99.90;;;;;;4070763;29;20132;-52
2023/08/03 05:19:41;;;;;;;13.18;3.08;;;17.20;99.90;;;;;;4070862;29;20084;-51
2023/08/03 05:21:43;;;;;;;15.50;2.70;;;17.10;99.90;;;;;;4071218;29;20055;-52
2023/08/03 05:23:46;;;;;;;10.57;2.95;;;17.10;99.90;;;;;;4071052;29;20053;-50
2023/08/03 05:25:53;;;;;;;13.38;3.05;;;17.20;99.90;;;;;;4072401;29;20091;-51
2023/08/03 05:27:56;;;;;;;8.82;2.13;;;17.20;99.90;;;;;;4070800;29;20127;-52
2023/08/03 05:29:58;;;;;;;10.10;2.78;;;17.20;99.90;;;;;;4070726;29;20056;-52
2023/08/03 05:32:01;;;;;;;10.05;3.08;;;17.20;99.90;;;;;;4070859;29;20060;-52
2023/08/03 05:34:03;;;;;;;10.77;2.50;;;17.20;99.90;;;;;;4085430;29;20151;-58
2023/08/03 05:36:05;;;;;;;12.13;2.67;;;17.10;99.90;;;;;;4070753;29;20079;-51
2023/08/03 05:38:07;;;;;;;10.95;2.95;;;17.20;99.90;;;;;;4069797;29;20075;-51
2023/08/03 05:40:10;;;;;;;10.50;2.20;;;17.20;99.90;;;;;;4070477;29;20142;-52
2023/08/03 05:42:14;;;;;;;14.15;3.03;;;17.20;99.90;;;;;;4070476;29;20297;-51
2023/08/03 05:44:17;;;;;;;11.88;2.53;;;17.20;99.90;;;;;;4070830;29;20482;-51
2023/08/03 05:46:19;;;;;;;9.65;2.97;;;17.20;99.90;;;;;;4070718;29;20052;-55
2023/08/03 05:48:26;;;;;;;7.60;2.70;;;17.20;99.90;;;;;;4071898;29;20052;-54
2023/08/03 05:50:28;;;;;;;9.07;2.47;;;17.30;99.90;;;;;;4072720;29;20048;-51
2023/08/03 05:52:30;;;;;;;10.50;2.80;;;17.30;99.90;;;;;;4072016;29;20123;-51
2023/08/03 05:54:32;;;;;;;12.55;2.83;;;17.30;99.90;;;;;;4070830;29;20076;-51
2023/08/03 05:56:37;;;;;;;11.60;2.80;;;17.30;99.90;;;;;;4070164;29;20095;-50
2023/08/03 05:58:39;;;;;;;8.85;2.45;;;17.30;99.90;;;;;;4070382;29;20078;-51
2023/08/03 06:00:47;;;;;;;10.02;2.67;;;17.30;99.90;;;;;;4070067;29;20055;-51
2023/08/03 06:02:50;;;;;;;14.65;2.70;;;17.40;99.90;;;;;;4070635;29;20056;-51
2023/08/03 06:04:53;;;;;;;16.00;3.20;;;17.30;99.90;;;;;;4070342;29;20088;-51
2023/08/03 06:06:55;;;;;;;8.57;2.80;;;17.40;99.90;;;;;;4069631;29;20514;-51
2023/08/03 06:08:58;;;;;;;12.90;2.83;;;17.40;99.90;;;;;;4070037;29;20052;-51
2023/08/03 06:11:02;;;;;;;15.32;2.72;;;17.40;99.90;;;;;;4069829;29;20143;-51
2023/08/03 06:13:06;;;;;;;13.10;3.20;;;17.40;99.90;;;;;;4069845;29;20050;-50
2023/08/03 06:15:10;;;;;;;11.30;2.40;;;17.50;99.90;;;;;;4069724;29;20076;-51
2023/08/03 06:17:13;;;;;;;12.15;3.00;;;17.50;99.90;;;;;;4069557;29;20052;-51
2023/08/03 06:19:16;;;;;;;11.15;3.08;;;17.50;99.90;;;;;;4069924;29;20083;-51
2023/08/03 06:21:19;;;;;;;13.25;3.03;;;17.60;99.90;;;;;;4069856;29;20048;-52
2023/08/03 06:23:23;;;;;;;11.38;2.55;;;17.60;99.90;;;;;;4069999;29;20107;-51
2023/08/03 06:25:26;;;;;;;13.35;2.88;;;17.60;99.90;;;;;;4069696;29;20055;-51
2023/08/03 06:27:28;;;;;;;9.05;2.38;;;17.60;99.90;;;;;;4068291;29;20048;-53
2023/08/03 06:29:30;;;;;;;11.38;2.58;;;17.60;99.90;;;;;;4069315;29;20055;-53
2023/08/03 06:31:35;;;;;;;8.57;2.70;;;17.60;99.90;;;;;;4069567;29;20044;-54
2023/08/03 06:33:39;;;;;;;14.75;2.60;;;17.60;99.90;;;;;;4069497;29;20051;-53
2023/08/03 06:35:43;;;;;;;12.32;2.63;;;17.60;99.90;;;;;;4069847;29;20067;-53
2023/08/03 06:37:45;;;;;;;13.25;2.88;;;17.60;99.90;;;;;;4068780;29;20410;-54
2023/08/03 06:39:49;;;;;;;7.57;2.28;;;17.70;99.90;;;;;;4069467;29;20052;-53
2023/08/03 06:41:52;;;;;;;12.25;2.30;;;17.70;99.90;;;;;;4069730;29;20458;-53
2023/08/03 06:43:55;;;;;;;11.23;2.58;;;17.70;99.90;;;;;;4068971;29;20051;-54
2023/08/03 06:45:57;;;;;;;11.02;2.63;;;17.70;99.90;;;;;;4069347;29;20123;-53
2023/08/03 06:48:00;;;;;;;10.50;3.15;;;17.70;99.90;;;;;;4068849;29;20127;-54
2023/08/03 06:50:04;;;;;;;10.38;2.88;;;17.80;99.90;;;;;;4069307;29;20115;-54
2023/08/03 06:52:07;;;;;;;10.23;2.78;;;17.80;99.90;;;;;;4069319;29;20074;-54
2023/08/03 06:54:09;;;;;;;11.23;2.78;;;17.80;99.90;;;;;;4069164;29;20494;-53
2023/08/03 06:56:11;;;;;;;13.10;3.33;;;17.80;99.90;;;;;;4069361;29;20087;-53
2023/08/03 06:58:13;;;;;;;12.35;3.30;;;17.80;99.90;;;;;;4068151;29;20108;-53
2023/08/03 07:00:16;;;;;;;21.55;2.97;;;17.70;99.90;;;;;;4069047;29;20056;-53
2023/08/03 07:02:18;;;;;;;13.15;3.00;;;17.70;99.90;;;;;;4069317;29;20051;-53
2023/08/03 07:04:20;;;;;;;14.70;3.70;;;17.70;99.90;;;;;;4067990;29;20078;-54
2023/08/03 07:06:24;;;;;;;16.60;2.60;;;17.70;99.90;;;;;;4068963;29;20120;-53
2023/08/03 07:08:26;;;;;;;14.82;3.15;;;17.70;99.90;;;;;;4068567;29;20139;-53
2023/08/03 07:10:28;;;;;;;10.32;2.67;;;17.80;99.90;;;;;;4069079;29;20056;-53
2023/08/03 07:12:30;;;;;;;10.57;3.25;;;17.70;99.90;;;;;;4068584;29;20107;-53
2023/08/03 07:14:33;;;;;;;16.02;3.28;;;17.70;99.90;;;;;;4069350;29;20067;-51
2023/08/03 07:16:36;;;;;;;13.32;2.63;;;17.70;99.90;;;;;;4069054;29;20107;-53
2023/08/03 07:18:39;;;;;;;13.00;3.03;;;17.70;99.90;;;;;;4068563;29;20400;-54
2023/08/03 07:20:41;;;;;;;15.57;3.47;;;17.70;99.90;;;;;;4068752;29;20056;-54
2023/08/03 07:22:48;;;;;;;12.18;2.80;;;17.70;99.90;;;;;;4067663;29;20044;-53
2023/08/03 07:24:51;;;;;;;9.38;2.63;;;17.70;99.90;;;;;;4068852;29;20403;-53
2023/08/03 07:26:53;;;;;;;11.38;2.95;;;17.70;99.90;;;;;;4066882;29;20104;-51
2023/08/03 07:28:55;;;;;;;9.25;2.50;;;17.70;99.90;;;;;;4069419;29;20055;-56
2023/08/03 07:30:57;;;;;;;14.30;3.38;;;17.80;99.90;;;;;;4071195;29;20048;-53
2023/08/03 07:32:59;;;;;;;10.65;3.00;;;17.70;99.90;;;;;;4071078;29;20058;-54
2023/08/03 07:35:02;;;;;;;14.23;3.15;;;17.70;99.90;;;;;;4069054;29;20044;-53
2023/08/03 07:37:05;;;;;;;16.83;3.40;;;17.70;99.90;;;;;;4068257;29;20048;-53
2023/08/03 07:39:08;;;;;;;11.40;2.70;;;17.60;99.90;;;;;;4068512;29;20052;-54
2023/08/03 07:41:11;;;;;;;13.00;3.17;;;17.70;99.90;;;;;;4068527;29;20056;-53
2023/08/03 07:43:13;;;;;;;13.57;3.33;;;17.60;99.90;;;;;;4068719;29;20079;-53
2023/08/03 07:45:15;;;;;;;12.48;3.28;;;17.60;99.90;;;;;;4068487;29;20075;-53
2023/08/03 07:47:37;;;;;;;11.52;2.88;;;17.60;99.90;;;;;;4067917;29;20076;-53
2023/08/03 07:49:39;;;;;;;10.50;2.60;;;17.70;99.90;;;;;;4068513;29;20410;-53
2023/08/03 07:51:41;;;;;;;12.30;3.15;;;17.70;99.90;;;;;;4068583;29;20044;-53
2023/08/03 07:53:44;;;;;;;13.60;3.05;;;17.70;99.90;;;;;;4068635;29;20131;-54
2023/08/03 07:55:47;;;;;;;15.85;3.30;;;17.70;99.90;;;;;;4067807;29;20064;-53
2023/08/03 07:57:49;;;;;;;10.95;2.88;;;17.80;99.90;;;;;;4067835;29;20048;-52
2023/08/03 07:59:51;;;;;;;14.07;2.83;;;17.80;99.90;;;;;;4068373;29;20079;-56
2023/08/03 08:01:53;;;;;;;7.88;3.05;;;17.70;99.90;;;;;;4068254;29;20048;-54
2023/08/03 08:03:56;;;;;;;15.60;2.83;;;17.80;99.90;;;;;;4068278;29;20048;-54
2023/08/03 08:06:04;;;;;;;10.10;2.88;;;17.80;99.90;;;;;;4068111;29;20529;-53
2023/08/03 08:08:06;;;;;;;11.75;3.17;;;17.80;99.90;;;;;;4067547;29;20072;-51
2023/08/03 08:10:11;;;;;;;10.52;2.42;;;17.80;99.90;;;;;;4067901;29;20136;-55
2023/08/03 08:12:15;;;;;;;12.45;3.05;;;17.80;99.90;;;;;;4068436;29;20055;-53
2023/08/03 08:14:17;;;;;;;10.30;2.63;;;17.90;99.90;;;;;;4068058;29;20044;-54
2023/08/03 08:16:19;;;;;;;13.40;3.35;;;17.90;99.90;;;;;;4068402;29;20387;-52
2023/08/03 08:18:21;;;;;;;11.35;2.55;;;17.90;99.90;;;;;;4067468;29;20047;-51
2023/08/03 08:20:23;;;;;;;12.50;2.60;;;17.90;99.90;;;;;;4067022;29;20062;-53
2023/08/03 08:22:25;;;;;;;10.50;2.47;;;17.90;99.90;;;;;;4068351;29;20510;-51
2023/08/03 08:24:28;;;;;;;7.88;2.75;;;18.00;99.90;;;;;;4067899;29;20053;-52
2023/08/03 08:26:31;;;;;;;7.88;2.05;;;18.00;99.90;;;;;;4068027;29;20056;-53
2023/08/03 08:28:34;;;;;;;10.10;2.65;;;18.00;99.90;;;;;;4067412;29;20095;-52
2023/08/03 08:30:42;;;;;;;12.45;2.60;;;18.00;99.90;;;;;;4068062;29;20522;-54
2023/08/03 08:32:44;;;;;;;10.00;2.55;;;18.00;99.90;;;;;;4068126;29;20406;-53
2023/08/03 08:34:46;;;;;;;12.55;3.17;;;18.00;99.90;;;;;;4068346;29;20107;-53
2023/08/03 08:36:55;;;;;;;15.57;5.97;;;18.00;99.90;;;;;;4068042;29;20044;-54
2023/08/03 08:38:57;;;;;;;12.45;3.60;;;18.00;99.90;;;;;;4067253;29;20056;-54
2023/08/03 08:41:02;;;;;;;11.20;2.90;;;18.10;99.90;;;;;;4067964;29;20095;-54
2023/08/03 08:43:05;;;;;;;9.15;2.42;;;18.10;99.90;;;;;;4068105;29;20108;-54
2023/08/03 08:45:13;;;;;;;7.85;2.90;;;18.10;99.90;;;;;;4068035;29;20399;-54
2023/08/03 08:47:20;;;;;;;8.75;2.45;;;18.10;99.90;;;;;;4067636;29;20173;-54
2023/08/03 08:49:22;;;;;;;8.77;2.25;;;18.20;99.90;;;;;;4067775;29;20080;-54
2023/08/03 08:51:27;;;;;;;;;;;18.20;99.90;;;;;;4071938;29;20079;-52
2023/08/03 08:53:33;;;;;;;8.40;1.97;;;18.30;99.90;;;;;;4070783;29;20361;-53
2023/08/03 08:55:55;;;;;;;8.45;2.38;;;18.30;99.90;;;;;;4070989;29;20052;-54
2023/08/03 08:58:00;;;;;;;9.73;2.35;;;18.40;99.90;;;;;;4070158;29;20418;-54
2023/08/03 09:00:08;;;;;;;7.85;2.33;;;18.40;99.90;;;;;;4070797;29;20119;-53
2023/08/03 09:02:24;;;;;;;9.73;2.58;;;18.30;99.90;;;;;;4070998;29;20131;-53
2023/08/03 09:04:29;;;;;;;9.52;2.80;;;18.40;99.90;;;;;;4071016;29;20052;-53
2023/08/03 09:06:42;;;;;;;8.82;2.50;;;18.40;99.90;;;;;;4069919;29;20504;-54
2023/08/03 09:08:50;;;;;;;12.32;2.50;;;18.50;99.90;;;;;;4069700;29;20123;-54
2023/08/03 09:10:53;;;;;;;7.78;2.40;;;18.50;99.90;;;;;;4070650;29;20119;-53
2023/08/03 09:12:56;;;;;;;7.72;2.25;;;18.60;99.90;;;;;;4070857;29;20148;-54
2023/08/03 09:14:59;;;;;;;9.73;2.22;;;18.60;99.90;;;;;;4055566;29;20108;-53
2023/08/03 09:17:18;;;;;;;11.93;2.60;;;18.70;99.90;;;;;;4060244;29;20084;-52
2023/08/03 09:19:36;;;;;;;9.10;2.35;;;18.70;99.90;;;;;;4055040;29;20058;-51
2023/08/03 09:21:38;;;;;;;8.60;2.40;;;18.70;99.90;;;;;;4055264;29;20056;-51
2023/08/03 09:23:43;;;;;;;;;;;18.60;99.90;;;;;;4055127;29;20407;-51
2023/08/03 09:25:52;;;;;;;11.27;2.40;;;18.60;99.90;;;;;;4055138;29;19947;-51
2023/08/03 09:27:55;;;;;;;10.02;2.53;;;18.60;99.90;;;;;;4054454;29;20136;-51
2023/08/03 09:30:01;;;;;;;5.75;1.70;;;18.70;99.90;;;;;;4068925;29;20064;-52
2023/08/03 09:32:06;;;;;;;9.40;2.67;;;18.70;99.90;;;;;;4069244;29;20048;-52
2023/08/03 09:34:37;;;;;;;9.32;1.88;;;18.80;99.90;;;;;;4054717;29;20076;-52
2023/08/03 09:36:47;;;;;;;8.00;2.42;;;18.80;99.90;;;;;;4054341;29;20080;-52
2023/08/03 09:39:10;;;;;;;7.53;2.22;;;18.80;99.90;;;;;;4054612;29;20053;-50
2023/08/03 09:41:32;;;;;;;8.77;2.15;;;18.90;99.90;;;;;;4068663;29;20122;-52
2023/08/03 09:43:54;;;;;;;7.45;2.17;;;19.00;99.90;;;;;;4054909;29;20048;-52
2023/08/03 09:45:57;;;;;;;6.30;2.05;;;19.10;99.90;;;;;;4054668;29;20388;-51
2023/08/03 09:48:02;;;;;;;8.85;2.08;;;19.30;99.90;;;;;;4054916;29;20056;-53
2023/08/03 09:50:06;;;;;;;9.98;2.03;;;19.50;99.90;;;;;;4054805;29;20044;-51
2023/08/03 09:52:11;;;;;;;9.82;2.20;;;19.60;99.90;;;;;;4054655;29;20487;-51
2023/08/03 09:54:26;;;;;;;10.18;2.65;;;19.60;99.90;;;;;;4048727;29;20044;-52
2023/08/03 09:56:33;;;;;;;8.45;2.42;;;19.80;99.90;;;;;;4048191;29;20060;-51
2023/08/03 09:58:40;;;;;;;10.63;2.88;;;19.80;99.90;;;;;;4050463;29;20052;-52
2023/08/03 10:00:44;;;;;;;9.25;2.25;;;19.90;99.90;;;;;;4054329;29;20144;-52
2023/08/03 10:02:52;;;;;;;9.55;2.78;;;20.10;99.90;;;;;;4054029;29;20049;-51
2023/08/03 10:05:00;;;;;;;6.40;1.90;;;20.20;99.90;;;;;;4054376;29;20045;-51
2023/08/03 10:07:08;;;;;;;5.65;1.45;;;20.30;99.90;;;;;;4054253;29;20486;-51
2023/08/03 10:09:14;;;;;;;8.88;2.15;;;20.20;99.90;;;;;;4053691;29;20112;-52
2023/08/03 10:11:17;;;;;;;7.20;2.15;;;20.40;99.90;;;;;;4054422;29;20072;-51
2023/08/03 10:13:19;;;;;;;9.52;2.15;;;20.40;99.90;;;;;;4054349;29;20047;-55
2023/08/03 10:15:23;;;;;;;7.72;1.98;;;20.40;99.90;;;;;;4083208;29;20131;-53
2023/08/03 10:17:25;;;;;;;10.52;2.25;;;20.40;99.90;;;;;;4064104;29;20052;-52
2023/08/03 10:19:28;;;;;;;6.78;1.98;;;20.40;99.90;;;;;;4054217;29;20051;-51
2023/08/03 10:21:31;;;;;;;7.55;1.80;;;20.40;99.90;;;;;;4053900;29;20132;-50
2023/08/03 10:23:38;;;;;;;6.32;1.98;;;20.50;99.90;;;;;;4054324;29;20061;-51
2023/08/03 10:25:52;;;;;;;5.22;1.70;;;20.50;99.90;;;;;;4053879;29;20060;-51
2023/08/03 10:28:13;;;;;;;8.35;1.88;;;20.60;99.90;;;;;;4053685;29;20053;-51
2023/08/03 10:30:15;;;;;;;6.97;2.08;;;20.60;99.90;;;;;;4052873;29;20384;-51
2023/08/03 10:32:18;;;;;;;6.68;2.00;;;20.50;99.90;;;;;;4054242;29;20052;-53
2023/08/03 10:34:25;;;;;;;7.82;1.90;;;20.40;99.90;;;;;;4053833;29;20108;-51
2023/08/03 10:36:41;;;;;;;5.20;2.13;;;20.30;99.90;;;;;;4053537;29;20049;-51
2023/08/03 10:38:46;;;;;;;8.85;1.75;;;20.20;99.90;;;;;;4051728;29;20051;-53